createdAt,value
2022-10-08T00:03:56.224Z,10.02
2022-10-08T00:09:02.203Z,9.82
2022-10-08T00:14:05.858Z,11.05
2022-10-08T00:19:11.963Z,11.82
2022-10-08T00:24:18.275Z,13.13
2022-10-08T00:29:22.551Z,9.20
2022-10-08T00:34:25.473Z,10.10
2022-10-08T00:39:29.619Z,10.80
2022-10-08T00:44:55.054Z,11.45
2022-10-08T00:50:00.204Z,9.90
2022-10-08T00:55:07.439Z,9.23
2022-10-08T01:00:14.305Z,11.98
2022-10-08T01:05:20.670Z,10.52
2022-10-08T01:10:34.005Z,10.32
2022-10-08T01:15:42.474Z,9.95
2022-10-08T01:20:53.135Z,13.05
2022-10-08T01:26:04.824Z,9.32
2022-10-08T01:31:12.462Z,10.70
2022-10-08T01:36:18.489Z,10.17
2022-10-08T01:41:25.234Z,8.60
2022-10-08T01:46:32.725Z,9.68
2022-10-08T01:51:41.805Z,14.32
2022-10-08T01:56:47.060Z,11.05
2022-10-08T02:01:56.412Z,10.80
2022-10-08T02:07:02.072Z,12.18
2022-10-08T02:12:05.991Z,12.20
2022-10-08T02:17:23.780Z,9.50
2022-10-08T02:22:34.257Z,13.53
2022-10-08T02:27:45.309Z,10.23
2022-10-08T02:33:09.849Z,6.60
2022-10-08T02:38:18.426Z,11.45
2022-10-08T02:43:25.581Z,15.25
2022-10-08T02:48:32.611Z,11.73
2022-10-08T02:53:39.052Z,13.60
2022-10-08T02:58:43.141Z,16.88
2022-10-08T03:03:53.628Z,10.15
2022-10-08T03:08:59.096Z,8.48
2022-10-08T03:14:05.508Z,12.93
2022-10-08T03:19:12.230Z,12.25
2022-10-08T03:24:16.719Z,12.98
2022-10-08T03:29:19.515Z,12.55
2022-10-08T03:34:25.669Z,12.75
2022-10-08T03:39:28.422Z,7.78
2022-10-08T03:44:31.184Z,7.18
2022-10-08T03:49:35.794Z,8.25
2022-10-08T03:54:39.058Z,7.78
2022-10-08T03:59:41.763Z,9.52
2022-10-08T04:04:45.842Z,9.88
2022-10-08T04:09:48.644Z,9.82
2022-10-08T04:14:51.387Z,10.13
2022-10-08T04:19:57.206Z,12.07
2022-10-08T04:25:00.017Z,8.95
2022-10-08T04:30:02.783Z,7.93
2022-10-08T04:35:10.620Z,9.95
2022-10-08T04:40:13.359Z,14.25
2022-10-08T04:45:16.219Z,10.43
2022-10-08T04:50:20.421Z,11.05
2022-10-08T04:55:24.777Z,10.15
2022-10-08T05:00:27.997Z,10.95
2022-10-08T05:05:32.133Z,11.30
2022-10-08T05:10:35.190Z,8.73
2022-10-08T05:15:37.935Z,11.05
2022-10-08T05:20:42.128Z,9.68
2022-10-08T05:25:44.855Z,13.35
2022-10-08T05:30:47.633Z,10.75
2022-10-08T05:35:52.125Z,10.27
2022-10-08T05:40:54.822Z,11.77
2022-10-08T05:45:58.888Z,13.02
2022-10-08T05:51:07.626Z,10.43
2022-10-08T05:56:12.977Z,10.57
2022-10-08T06:01:17.342Z,12.40
2022-10-08T06:06:22.713Z,11.30
2022-10-08T06:11:25.728Z,10.38
2022-10-08T06:16:30.667Z,9.68
2022-10-08T06:21:35.919Z,9.70
2022-10-08T06:26:40.440Z,16.77
2022-10-08T06:31:45.601Z,11.75
2022-10-08T06:36:50.037Z,8.15
2022-10-08T06:41:52.828Z,13.68
2022-10-08T06:46:56.494Z,9.20
2022-10-08T06:52:00.656Z,10.02
2022-10-08T06:57:03.405Z,8.93
2022-10-08T07:02:06.209Z,9.00
2022-10-08T07:07:10.329Z,8.80
2022-10-08T07:12:14.766Z,7.18
2022-10-08T07:17:17.657Z,8.60
2022-10-08T07:22:22.155Z,9.57
2022-10-08T07:27:24.939Z,6.47
2022-10-08T07:32:27.703Z,7.28
2022-10-08T07:37:31.801Z,7.20
2022-10-08T07:42:34.664Z,7.00
2022-10-08T07:47:37.454Z,10.18
2022-10-08T07:52:41.582Z,13.90
2022-10-08T07:57:44.303Z,11.45
2022-10-08T08:02:49.366Z,6.47
2022-10-08T08:07:53.807Z,12.38
2022-10-08T08:12:56.552Z,8.73
2022-10-08T08:17:59.571Z,6.85
2022-10-08T08:23:03.650Z,4.68
2022-10-08T08:28:06.469Z,8.68
2022-10-08T08:33:09.250Z,8.25
2022-10-08T08:38:13.393Z,6.40
2022-10-08T08:43:16.750Z,6.20
2022-10-08T08:48:24.425Z,6.53
2022-10-08T08:53:29.013Z,5.90
2022-10-08T08:58:37.357Z,6.70
2022-10-08T09:03:43.753Z,7.82
2022-10-08T09:08:51.936Z,6.85
2022-10-08T09:19:00.476Z,11.15
2022-10-08T09:24:04.727Z,6.57
2022-10-08T09:29:07.500Z,9.93
2022-10-08T09:34:18.812Z,9.50
2022-10-08T09:39:25.113Z,7.32
2022-10-08T09:44:27.924Z,6.57
2022-10-08T09:49:32.825Z,5.70
2022-10-08T09:54:43.234Z,5.93
2022-10-08T09:59:52.388Z,6.05
2022-10-08T10:04:56.514Z,5.60
2022-10-08T10:10:03.441Z,3.08
2022-10-08T10:15:16.187Z,5.03
2022-10-08T10:20:23.181Z,5.40
2022-10-08T10:25:35.792Z,5.00
2022-10-08T10:30:50.958Z,6.05
2022-10-08T10:35:56.967Z,5.70
2022-10-08T10:41:12.513Z,6.10
2022-10-08T10:46:32.522Z,6.38
2022-10-08T10:51:57.971Z,6.68
2022-10-08T10:57:05.957Z,2.38
2022-10-08T11:02:17.860Z,4.15
2022-10-08T11:07:50.741Z,5.90
2022-10-08T11:13:01.284Z,7.95
2022-10-08T11:18:19.017Z,5.95
2022-10-08T11:23:36.172Z,4.63
2022-10-08T11:28:50.228Z,4.07
2022-10-08T11:33:56.785Z,3.20
2022-10-08T11:39:11.669Z,3.17
2022-10-08T11:44:18.176Z,1.67
2022-10-08T11:49:50.797Z,1.95
2022-10-08T11:54:55.964Z,2.80
2022-10-08T12:00:08.319Z,2.55
2022-10-08T12:05:30.366Z,2.47
2022-10-08T12:10:34.850Z,3.47
2022-10-08T12:16:06.861Z,2.65
2022-10-08T12:21:54.039Z,5.00
2022-10-08T12:27:41.237Z,3.88
2022-10-08T12:32:58.123Z,4.22
2022-10-08T12:38:09.902Z,4.35
2022-10-08T12:43:22.280Z,3.30
2022-10-08T12:48:36.075Z,5.22
2022-10-08T12:53:44.787Z,5.10
2022-10-08T12:58:49.394Z,6.07
2022-10-08T13:04:17.026Z,6.70
2022-10-08T13:09:27.089Z,4.95
2022-10-08T13:14:33.252Z,7.65
2022-10-08T13:19:39.299Z,2.13
2022-10-08T13:24:44.057Z,5.55
2022-10-08T13:29:46.827Z,8.18
2022-10-08T13:34:53.215Z,5.97
2022-10-08T13:39:57.508Z,2.28
2022-10-08T13:45:01.566Z,3.83
2022-10-08T13:50:06.256Z,1.63
2022-10-08T13:55:22.426Z,3.75
2022-10-08T14:00:25.437Z,5.78
2022-10-08T14:05:31.578Z,4.43
2022-10-08T14:10:34.567Z,5.00
2022-10-08T14:15:37.299Z,7.57
2022-10-08T14:20:41.611Z,3.97
2022-10-08T14:25:44.411Z,8.60
2022-10-08T14:30:47.200Z,5.28
2022-10-08T14:35:54.394Z,9.00
2022-10-08T14:41:00.619Z,5.63
2022-10-08T14:46:03.606Z,5.18
2022-10-08T14:51:08.159Z,4.97
2022-10-08T14:56:12.753Z,7.53
2022-10-08T15:01:15.869Z,3.05
2022-10-08T15:06:20.621Z,3.20
2022-10-08T15:11:23.448Z,3.80
2022-10-08T15:16:26.394Z,2.80
2022-10-08T15:21:30.647Z,9.07
2022-10-08T15:26:33.566Z,4.90
2022-10-08T15:31:36.369Z,4.57
2022-10-08T15:36:40.463Z,5.55
2022-10-08T15:41:44.811Z,4.40
2022-10-08T15:46:47.855Z,6.15
2022-10-08T15:51:51.926Z,4.53
2022-10-08T15:56:54.849Z,4.50
2022-10-08T16:01:58.014Z,4.70
2022-10-08T16:07:02.173Z,3.90
2022-10-08T16:12:05.326Z,7.75
2022-10-08T16:17:08.726Z,5.97
2022-10-08T16:22:12.842Z,5.72
2022-10-08T16:27:15.857Z,8.25
2022-10-08T16:32:18.637Z,7.97
2022-10-08T16:37:22.806Z,10.82
2022-10-08T16:42:25.838Z,7.50
2022-10-08T16:47:28.937Z,6.93
2022-10-08T16:52:33.514Z,10.23
2022-10-08T16:57:36.294Z,11.23
2022-10-08T17:02:39.050Z,10.93
2022-10-08T17:07:43.499Z,9.23
2022-10-08T17:12:46.837Z,10.00
2022-10-08T17:17:54.646Z,9.95
2022-10-08T17:28:02.602Z,12.90
2022-10-08T17:33:05.533Z,7.15
2022-10-08T17:38:09.776Z,12.95
2022-10-08T17:43:12.680Z,13.25
2022-10-08T17:48:15.481Z,11.18
2022-10-08T17:53:19.680Z,12.38
2022-10-08T17:58:22.445Z,12.98
2022-10-08T18:03:25.363Z,11.93
2022-10-08T18:08:29.613Z,12.18
2022-10-08T18:13:33.594Z,7.47
2022-10-08T18:18:36.979Z,11.55
2022-10-08T18:23:42.896Z,11.98
2022-10-08T18:28:48.213Z,9.98
2022-10-08T18:33:52.708Z,12.35
2022-10-08T18:38:58.791Z,17.08
2022-10-08T18:44:04.425Z,13.15
2022-10-08T18:49:08.278Z,11.38
2022-10-08T18:54:13.300Z,9.25
2022-10-08T18:59:17.436Z,9.10
2022-10-08T19:04:24.029Z,6.15
2022-10-08T19:09:28.355Z,7.47
2022-10-08T19:14:31.097Z,8.73
2022-10-08T19:19:33.973Z,10.90
2022-10-08T19:24:41.033Z,9.10
2022-10-08T19:29:44.192Z,8.32
2022-10-08T19:34:47.045Z,7.88
2022-10-08T19:39:51.286Z,10.50
2022-10-08T19:44:54.158Z,8.20
2022-10-08T19:49:57.770Z,9.35
2022-10-08T19:55:02.013Z,13.43
2022-10-08T20:00:05.942Z,8.18
2022-10-08T20:05:09.739Z,11.57
2022-10-08T20:10:16.586Z,11.38
2022-10-08T20:15:19.436Z,11.52
2022-10-08T20:20:33.029Z,9.05
2022-10-08T20:25:37.677Z,16.58
2022-10-08T20:30:42.770Z,8.02
2022-10-08T20:35:45.615Z,10.18
2022-10-08T20:40:49.820Z,10.75
2022-10-08T20:45:52.621Z,8.40
2022-10-08T20:50:55.413Z,9.55
2022-10-08T20:56:03.916Z,10.00
2022-10-08T21:01:08.978Z,12.20
2022-10-08T21:06:14.696Z,10.75
2022-10-08T21:11:21.111Z,12.30
2022-10-08T21:16:25.662Z,10.18
2022-10-08T21:21:30.279Z,14.45
2022-10-08T21:26:36.568Z,10.95
2022-10-08T21:31:41.087Z,12.73
2022-10-08T21:36:44.658Z,12.10
2022-10-08T21:41:51.830Z,10.75
2022-10-08T21:46:54.653Z,14.20
2022-10-08T21:51:58.275Z,10.88
2022-10-08T21:57:02.413Z,6.90
2022-10-08T22:02:05.285Z,9.35
2022-10-08T22:07:08.034Z,11.02
2022-10-08T22:12:12.233Z,12.88
2022-10-08T22:17:15.131Z,11.18
2022-10-08T22:22:17.910Z,12.30
2022-10-08T22:27:21.905Z,10.18
2022-10-08T22:32:24.862Z,9.05
2022-10-08T22:37:27.641Z,13.70
2022-10-08T22:42:31.799Z,10.32
2022-10-08T22:47:34.545Z,10.27
2022-10-08T22:52:37.263Z,9.05
2022-10-08T22:57:41.616Z,7.70
2022-10-08T23:02:44.331Z,5.72
2022-10-08T23:07:47.086Z,11.68
2022-10-08T23:12:52.618Z,12.90
2022-10-08T23:17:55.404Z,12.40
2022-10-08T23:22:58.188Z,9.70
2022-10-08T23:28:02.320Z,8.82
2022-10-08T23:33:05.320Z,9.27
2022-10-08T23:38:10.539Z,10.80
2022-10-08T23:43:14.685Z,8.73
2022-10-08T23:48:17.493Z,9.07
2022-10-08T23:53:21.602Z,9.05
2022-10-08T23:58:25.835Z,11.45
